sensor_id;sensor_type;location;lat;lon;timestamp;P1;P2;P0
14880;PMS7003;7533;51.278;12.588;2023-02-24T00:02:32;18.00;15.00;9.00
14880;PMS7003;7533;51.278;12.588;2023-02-24T00:07:35;13.75;13.50;8.00
14880;PMS7003;7533;51.278;12.588;2023-02-24T00:12:39;15.75;14.50;10.00
14880;PMS7003;7533;51.278;12.588;2023-02-24T00:17:43;18.00;13.75;8.50
14880;PMS7003;7533;51.278;12.588;2023-02-24T00:22:46;15.75;13.75;9.00
14880;PMS7003;7533;51.278;12.588;2023-02-24T00:27:50;15.00;13.50;8.50
14880;PMS7003;7533;51.278;12.588;2023-02-24T00:32:55;14.75;13.25;8.75
14880;PMS7003;7533;51.278;12.588;2023-02-24T00:38:01;14.75;14.00;8.25
14880;PMS7003;7533;51.278;12.588;2023-02-24T00:43:06;17.50;16.75;10.00
14880;PMS7003;7533;51.278;12.588;2023-02-24T00:48:09;13.00;12.50;8.00
14880;PMS7003;7533;51.278;12.588;2023-02-24T00:53:12;16.00;14.25;9.25
14880;PMS7003;7533;51.278;12.588;2023-02-24T00:58:19;13.50;13.50;9.00
14880;PMS7003;7533;51.278;12.588;2023-02-24T01:03:23;15.00;13.00;7.75
14880;PMS7003;7533;51.278;12.588;2023-02-24T01:08:26;12.00;10.50;7.00
14880;PMS7003;7533;51.278;12.588;2023-02-24T01:13:31;15.25;13.00;8.75
14880;PMS7003;7533;51.278;12.588;2023-02-24T01:18:33;13.50;13.00;9.00
14880;PMS7003;7533;51.278;12.588;2023-02-24T01:23:36;12.25;12.25;7.00
14880;PMS7003;7533;51.278;12.588;2023-02-24T01:28:40;14.50;12.00;7.25
14880;PMS7003;7533;51.278;12.588;2023-02-24T01:33:43;11.75;11.75;8.00
14880;PMS7003;7533;51.278;12.588;2023-02-24T01:38:47;13.50;10.75;7.00
14880;PMS7003;7533;51.278;12.588;2023-02-24T01:43:56;11.25;9.00;5.75
14880;PMS7003;7533;51.278;12.588;2023-02-24T01:49:03;14.50;14.00;8.25
14880;PMS7003;7533;51.278;12.588;2023-02-24T01:54:11;13.00;10.50;7.00
14880;PMS7003;7533;51.278;12.588;2023-02-24T01:59:18;12.00;9.75;5.00
14880;PMS7003;7533;51.278;12.588;2023-02-24T02:04:24;20.25;14.00;7.00
14880;PMS7003;7533;51.278;12.588;2023-02-24T02:09:34;12.75;11.75;7.00
14880;PMS7003;7533;51.278;12.588;2023-02-24T02:14:40;11.00;10.50;6.00
14880;PMS7003;7533;51.278;12.588;2023-02-24T02:25:33;13.75;12.25;7.25
14880;PMS7003;7533;51.278;12.588;2023-02-24T02:30:59;11.75;10.75;7.00
14880;PMS7003;7533;51.278;12.588;2023-02-24T02:36:31;11.75;11.00;7.75
14880;PMS7003;7533;51.278;12.588;2023-02-24T02:41:46;12.75;10.25;7.00
14880;PMS7003;7533;51.278;12.588;2023-02-24T02:46:55;11.25;11.00;7.00
14880;PMS7003;7533;51.278;12.588;2023-02-24T02:52:06;11.50;11.00;7.00
14880;PMS7003;7533;51.278;12.588;2023-02-24T02:57:17;11.00;10.50;6.00
14880;PMS7003;7533;51.278;12.588;2023-02-24T03:02:26;14.25;11.25;6.00
14880;PMS7003;7533;51.278;12.588;2023-02-24T03:07:40;11.75;10.00;6.00
14880;PMS7003;7533;51.278;12.588;2023-02-24T03:12:48;9.00;9.00;5.25
14880;PMS7003;7533;51.278;12.588;2023-02-24T03:17:54;12.00;10.75;5.50
14880;PMS7003;7533;51.278;12.588;2023-02-24T03:23:06;10.50;9.50;6.50
14880;PMS7003;7533;51.278;12.588;2023-02-24T03:28:17;9.75;9.75;6.75
14880;PMS7003;7533;51.278;12.588;2023-02-24T03:33:26;8.00;8.00;4.50
14880;PMS7003;7533;51.278;12.588;2023-02-24T03:38:36;11.00;11.00;6.00
14880;PMS7003;7533;51.278;12.588;2023-02-24T03:43:39;12.50;9.00;6.50
14880;PMS7003;7533;51.278;12.588;2023-02-24T03:48:49;9.50;9.50;6.00
14880;PMS7003;7533;51.278;12.588;2023-02-24T03:54:04;7.00;6.50;4.00
14880;PMS7003;7533;51.278;12.588;2023-02-24T03:59:24;9.50;8.75;6.50
14880;PMS7003;7533;51.278;12.588;2023-02-24T04:04:38;10.00;8.25;5.50
14880;PMS7003;7533;51.278;12.588;2023-02-24T04:10:03;9.50;9.50;5.50
14880;PMS7003;7533;51.278;12.588;2023-02-24T04:15:17;7.50;7.50;5.00
14880;PMS7003;7533;51.278;12.588;2023-02-24T04:20:24;10.00;9.00;4.25
14880;PMS7003;7533;51.278;12.588;2023-02-24T04:25:35;6.75;6.75;4.00
14880;PMS7003;7533;51.278;12.588;2023-02-24T04:30:41;8.00;8.00;4.75
14880;PMS7003;7533;51.278;12.588;2023-02-24T04:35:47;10.00;10.00;5.50
14880;PMS7003;7533;51.278;12.588;2023-02-24T04:40:54;7.50;7.50;5.50
14880;PMS7003;7533;51.278;12.588;2023-02-24T04:45:57;9.50;6.75;5.00
14880;PMS7003;7533;51.278;12.588;2023-02-24T04:51:00;10.00;8.50;5.00
14880;PMS7003;7533;51.278;12.588;2023-02-24T04:56:08;7.00;7.00;4.00
14880;PMS7003;7533;51.278;12.588;2023-02-24T05:01:11;8.50;7.00;4.00
14880;PMS7003;7533;51.278;12.588;2023-02-24T05:06:14;8.25;5.50;3.00
14880;PMS7003;7533;51.278;12.588;2023-02-24T05:11:20;6.25;5.00;3.25
14880;PMS7003;7533;51.278;12.588;2023-02-24T05:16:23;8.00;8.00;4.75
14880;PMS7003;7533;51.278;12.588;2023-02-24T05:21:29;6.75;6.75;4.00
14880;PMS7003;7533;51.278;12.588;2023-02-24T05:26:38;7.00;7.00;3.75
14880;PMS7003;7533;51.278;12.588;2023-02-24T05:31:42;11.25;9.25;4.25
14880;PMS7003;7533;51.278;12.588;2023-02-24T05:36:46;7.00;6.75;3.25
14880;PMS7003;7533;51.278;12.588;2023-02-24T05:41:50;6.00;6.00;4.50
14880;PMS7003;7533;51.278;12.588;2023-02-24T05:46:55;7.75;7.00;4.00
14880;PMS7003;7533;51.278;12.588;2023-02-24T05:52:00;6.00;6.00;3.00
14880;PMS7003;7533;51.278;12.588;2023-02-24T05:57:10;8.00;8.00;4.25
14880;PMS7003;7533;51.278;12.588;2023-02-24T06:02:16;9.50;7.25;4.00
14880;PMS7003;7533;51.278;12.588;2023-02-24T06:07:28;5.75;5.75;3.50
14880;PMS7003;7533;51.278;12.588;2023-02-24T06:12:35;7.50;6.50;3.00
14880;PMS7003;7533;51.278;12.588;2023-02-24T06:17:40;6.00;5.00;3.00
14880;PMS7003;7533;51.278;12.588;2023-02-24T06:22:43;6.75;6.50;5.00
14880;PMS7003;7533;51.278;12.588;2023-02-24T06:27:49;6.50;6.00;4.75
14880;PMS7003;7533;51.278;12.588;2023-02-24T06:32:54;7.25;5.25;3.00
14880;PMS7003;7533;51.278;12.588;2023-02-24T06:37:58;7.25;5.00;3.50
14880;PMS7003;7533;51.278;12.588;2023-02-24T06:43:02;5.75;5.75;3.00
14880;PMS7003;7533;51.278;12.588;2023-02-24T06:48:04;5.00;5.00;3.00
14880;PMS7003;7533;51.278;12.588;2023-02-24T06:53:09;5.00;5.00;3.00
14880;PMS7003;7533;51.278;12.588;2023-02-24T06:58:18;8.00;5.00;2.00
14880;PMS7003;7533;51.278;12.588;2023-02-24T07:03:25;6.00;6.00;3.00
14880;PMS7003;7533;51.278;12.588;2023-02-24T07:08:39;5.50;4.50;2.50
14880;PMS7003;7533;51.278;12.588;2023-02-24T07:13:46;7.25;6.50;2.75
14880;PMS7003;7533;51.278;12.588;2023-02-24T07:18:52;5.00;4.00;2.25
14880;PMS7003;7533;51.278;12.588;2023-02-24T07:23:57;7.00;7.00;3.25
14880;PMS7003;7533;51.278;12.588;2023-02-24T07:29:01;7.75;6.00;3.00
14880;PMS7003;7533;51.278;12.588;2023-02-24T07:34:06;6.00;4.00;2.25
14880;PMS7003;7533;51.278;12.588;2023-02-24T07:39:09;3.75;3.75;3.00
14880;PMS7003;7533;51.278;12.588;2023-02-24T07:44:14;5.50;5.50;3.00
14880;PMS7003;7533;51.278;12.588;2023-02-24T07:49:19;5.50;5.00;3.50
14880;PMS7003;7533;51.278;12.588;2023-02-24T07:54:26;5.75;3.00;2.00
14880;PMS7003;7533;51.278;12.588;2023-02-24T07:59:32;6.00;4.75;2.25
14880;PMS7003;7533;51.278;12.588;2023-02-24T08:04:38;4.00;3.50;2.75
14880;PMS7003;7533;51.278;12.588;2023-02-24T08:09:44;4.00;4.00;2.75
14880;PMS7003;7533;51.278;12.588;2023-02-24T08:15:05;4.00;4.00;2.00
14880;PMS7003;7533;51.278;12.588;2023-02-24T08:20:18;5.25;5.25;3.00
14880;PMS7003;7533;51.278;12.588;2023-02-24T08:25:25;3.75;3.75;1.75
14880;PMS7003;7533;51.278;12.588;2023-02-24T08:30:38;6.00;6.00;3.75
14880;PMS7003;7533;51.278;12.588;2023-02-24T08:35:48;8.25;5.50;3.00
14880;PMS7003;7533;51.278;12.588;2023-02-24T08:40:53;8.50;7.50;3.00
14880;PMS7003;7533;51.278;12.588;2023-02-24T08:46:01;3.25;3.00;2.00
14880;PMS7003;7533;51.278;12.588;2023-02-24T08:51:14;6.75;4.00;2.00
14880;PMS7003;7533;51.278;12.588;2023-02-24T08:56:24;5.75;5.00;1.50
14880;PMS7003;7533;51.278;12.588;2023-02-24T09:01:31;4.25;4.25;1.75
14880;PMS7003;7533;51.278;12.588;2023-02-24T09:06:38;2.75;2.50;1.50
14880;PMS7003;7533;51.278;12.588;2023-02-24T09:11:44;3.75;2.75;1.50
14880;PMS7003;7533;51.278;12.588;2023-02-24T09:16:49;5.00;5.00;2.00
14880;PMS7003;7533;51.278;12.588;2023-02-24T09:22:07;3.25;2.00;0.50
14880;PMS7003;7533;51.278;12.588;2023-02-24T09:27:29;4.25;3.75;1.00
14880;PMS7003;7533;51.278;12.588;2023-02-24T09:32:34;4.75;3.00;1.00
14880;PMS7003;7533;51.278;12.588;2023-02-24T09:37:37;2.00;2.00;0.25
14880;PMS7003;7533;51.278;12.588;2023-02-24T09:42:41;4.00;3.25;1.00
14880;PMS7003;7533;51.278;12.588;2023-02-24T09:47:49;3.00;3.00;1.00
14880;PMS7003;7533;51.278;12.588;2023-02-24T09:52:58;5.00;3.00;1.00
14880;PMS7003;7533;51.278;12.588;2023-02-24T09:58:16;4.25;3.25;0.25
14880;PMS7003;7533;51.278;12.588;2023-02-24T10:03:43;1.00;1.00;1.00
14880;PMS7003;7533;51.278;12.588;2023-02-24T10:08:53;4.00;3.00;0.50
14880;PMS7003;7533;51.278;12.588;2023-02-24T10:14:01;3.50;3.00;0.75
14880;PMS7003;7533;51.278;12.588;2023-02-24T10:19:13;4.50;4.00;1.00
14880;PMS7003;7533;51.278;12.588;2023-02-24T10:24:26;2.75;2.00;0.50
14880;PMS7003;7533;51.278;12.588;2023-02-24T10:29:37;1.00;1.00;0.00
14880;PMS7003;7533;51.278;12.588;2023-02-24T10:34:52;3.00;2.00;1.00
14880;PMS7003;7533;51.278;12.588;2023-02-24T10:39:56;2.00;2.00;0.50
14880;PMS7003;7533;51.278;12.588;2023-02-24T10:45:04;2.00;2.00;0.00
14880;PMS7003;7533;51.278;12.588;2023-02-24T10:50:21;3.00;2.00;1.00
14880;PMS7003;7533;51.278;12.588;2023-02-24T10:55:26;2.00;2.00;1.00
14880;PMS7003;7533;51.278;12.588;2023-02-24T11:00:54;3.25;3.00;1.00
14880;PMS7003;7533;51.278;12.588;2023-02-24T11:06:18;3.75;1.75;1.00
14880;PMS7003;7533;51.278;12.588;2023-02-24T11:11:42;8.25;6.25;3.00
14880;PMS7003;7533;51.278;12.588;2023-02-24T11:17:03;9.25;7.75;3.00
14880;PMS7003;7533;51.278;12.588;2023-02-24T11:22:21;12.25;8.25;4.00
14880;PMS7003;7533;51.278;12.588;2023-02-24T11:27:29;34.00;28.40;15.60
14880;PMS7003;7533;51.278;12.588;2023-02-24T11:32:36;19.75;16.25;9.50
14880;PMS7003;7533;51.278;12.588;2023-02-24T11:37:55;14.25;11.50;8.00
14880;PMS7003;7533;51.278;12.588;2023-02-24T11:43:08;13.50;11.25;6.75
14880;PMS7003;7533;51.278;12.588;2023-02-24T11:48:16;9.00;9.00;5.75
14880;PMS7003;7533;51.278;12.588;2023-02-24T11:53:25;8.00;8.00;5.00
14880;PMS7003;7533;51.278;12.588;2023-02-24T11:58:34;9.25;7.50;4.50
14880;PMS7003;7533;51.278;12.588;2023-02-24T12:03:48;7.50;6.00;3.75
14880;PMS7003;7533;51.278;12.588;2023-02-24T12:08:56;11.00;7.75;3.50
14880;PMS7003;7533;51.278;12.588;2023-02-24T12:14:04;6.00;5.00;2.50
14880;PMS7003;7533;51.278;12.588;2023-02-24T12:19:17;5.25;4.75;3.00
14880;PMS7003;7533;51.278;12.588;2023-02-24T12:24:30;4.50;4.00;2.00
14880;PMS7003;7533;51.278;12.588;2023-02-24T12:29:40;4.75;4.50;2.00
14880;PMS7003;7533;51.278;12.588;2023-02-24T12:34:59;3.75;3.75;2.00
14880;PMS7003;7533;51.278;12.588;2023-02-24T12:40:14;5.25;5.25;3.00
14880;PMS7003;7533;51.278;12.588;2023-02-24T12:45:30;3.25;3.25;1.75
14880;PMS7003;7533;51.278;12.588;2023-02-24T12:50:44;5.75;4.25;2.00
14880;PMS7003;7533;51.278;12.588;2023-02-24T12:55:57;4.00;3.00;1.75
14880;PMS7003;7533;51.278;12.588;2023-02-24T13:01:10;3.50;3.50;2.00
14880;PMS7003;7533;51.278;12.588;2023-02-24T13:06:23;5.00;2.50;1.00
14880;PMS7003;7533;51.278;12.588;2023-02-24T13:11:38;2.67;2.67;1.00
14880;PMS7003;7533;51.278;12.588;2023-02-24T13:16:47;4.75;3.75;1.50
14880;PMS7003;7533;51.278;12.588;2023-02-24T13:21:54;4.50;3.50;1.00
14880;PMS7003;7533;51.278;12.588;2023-02-24T13:27:07;3.00;3.00;1.00
14880;PMS7003;7533;51.278;12.588;2023-02-24T13:32:27;3.00;2.50;1.25
14880;PMS7003;7533;51.278;12.588;2023-02-24T13:37:33;3.00;3.00;2.00
14880;PMS7003;7533;51.278;12.588;2023-02-24T13:42:39;3.00;2.00;1.00
14880;PMS7003;7533;51.278;12.588;2023-02-24T13:53:33;4.00;3.25;1.00
14880;PMS7003;7533;51.278;12.588;2023-02-24T13:58:55;3.00;3.00;1.25
14880;PMS7003;7533;51.278;12.588;2023-02-24T14:04:12;2.75;2.00;1.00
14880;PMS7003;7533;51.278;12.588;2023-02-24T14:09:20;1.75;1.50;0.00
14880;PMS7003;7533;51.278;12.588;2023-02-24T14:14:26;2.75;2.75;1.25
14880;PMS7003;7533;51.278;12.588;2023-02-24T14:19:31;2.75;1.25;0.00
14880;PMS7003;7533;51.278;12.588;2023-02-24T14:24:33;1.50;1.50;0.50
14880;PMS7003;7533;51.278;12.588;2023-02-24T14:29:38;3.25;3.25;1.00
14880;PMS7003;7533;51.278;12.588;2023-02-24T14:34:44;3.00;2.50;0.00
14880;PMS7003;7533;51.278;12.588;2023-02-24T14:39:49;3.75;2.50;1.00
14880;PMS7003;7533;51.278;12.588;2023-02-24T14:44:55;2.00;1.00;0.00
14880;PMS7003;7533;51.278;12.588;2023-02-24T14:49:59;3.50;2.00;0.00
14880;PMS7003;7533;51.278;12.588;2023-02-24T14:55:04;3.50;2.00;0.50
14880;PMS7003;7533;51.278;12.588;2023-02-24T15:00:16;3.75;2.25;1.00
14880;PMS7003;7533;51.278;12.588;2023-02-24T15:05:24;2.25;2.00;1.00
14880;PMS7003;7533;51.278;12.588;2023-02-24T15:10:28;1.00;1.00;0.75
14880;PMS7003;7533;51.278;12.588;2023-02-24T15:15:34;3.00;1.75;0.00
14880;PMS7003;7533;51.278;12.588;2023-02-24T15:20:39;2.00;2.00;0.25
14880;PMS7003;7533;51.278;12.588;2023-02-24T15:25:44;2.00;2.00;1.00
14880;PMS7003;7533;51.278;12.588;2023-02-24T15:30:55;2.00;2.00;0.75
14880;PMS7003;7533;51.278;12.588;2023-02-24T15:36:04;1.25;1.25;0.25
14880;PMS7003;7533;51.278;12.588;2023-02-24T15:41:11;3.00;1.00;0.75
14880;PMS7003;7533;51.278;12.588;2023-02-24T15:46:19;1.00;1.00;0.00
14880;PMS7003;7533;51.278;12.588;2023-02-24T15:51:28;1.50;1.50;0.75
14880;PMS7003;7533;51.278;12.588;2023-02-24T15:56:35;4.75;3.25;1.00
14880;PMS7003;7533;51.278;12.588;2023-02-24T16:01:39;3.00;3.00;0.75
14880;PMS7003;7533;51.278;12.588;2023-02-24T16:06:43;1.50;1.50;0.25
14880;PMS7003;7533;51.278;12.588;2023-02-24T16:11:54;1.50;1.50;0.00
14880;PMS7003;7533;51.278;12.588;2023-02-24T16:16:59;2.00;2.00;0.50
14880;PMS7003;7533;51.278;12.588;2023-02-24T16:22:08;2.00;1.00;0.50
14880;PMS7003;7533;51.278;12.588;2023-02-24T16:27:12;1.50;1.50;0.50
14880;PMS7003;7533;51.278;12.588;2023-02-24T16:32:19;0.50;0.00;0.00
14880;PMS7003;7533;51.278;12.588;2023-02-24T16:37:25;1.25;1.25;0.00
14880;PMS7003;7533;51.278;12.588;2023-02-24T16:42:29;1.00;1.00;0.00
14880;PMS7003;7533;51.278;12.588;2023-02-24T16:47:33;2.50;1.00;0.00
14880;PMS7003;7533;51.278;12.588;2023-02-24T16:52:36;1.00;0.00;0.00
14880;PMS7003;7533;51.278;12.588;2023-02-24T16:57:39;3.75;2.00;0.00
14880;PMS7003;7533;51.278;12.588;2023-02-24T17:02:44;3.00;1.00;0.50
14880;PMS7003;7533;51.278;12.588;2023-02-24T17:07:49;1.25;1.25;0.00
14880;PMS7003;7533;51.278;12.588;2023-02-24T17:12:53;4.00;2.25;1.00
14880;PMS7003;7533;51.278;12.588;2023-02-24T17:17:57;3.75;1.50;0.00
14880;PMS7003;7533;51.278;12.588;2023-02-24T17:23:03;1.75;1.75;1.00
14880;PMS7003;7533;51.278;12.588;2023-02-24T17:28:06;1.00;1.00;0.00
14880;PMS7003;7533;51.278;12.588;2023-02-24T17:33:10;1.50;1.50;0.00
14880;PMS7003;7533;51.278;12.588;2023-02-24T17:38:15;1.50;1.00;0.00
14880;PMS7003;7533;51.278;12.588;2023-02-24T17:43:20;1.00;1.00;0.50
14880;PMS7003;7533;51.278;12.588;2023-02-24T17:48:24;1.50;0.75;0.00
14880;PMS7003;7533;51.278;12.588;2023-02-24T17:53:27;1.00;1.00;0.25
14880;PMS7003;7533;51.278;12.588;2023-02-24T17:58:31;1.75;1.00;0.00
14880;PMS7003;7533;51.278;12.588;2023-02-24T18:03:36;1.00;1.00;0.00
14880;PMS7003;7533;51.278;12.588;2023-02-24T18:08:39;1.50;1.50;0.75
14880;PMS7003;7533;51.278;12.588;2023-02-24T18:13:42;2.00;1.50;0.00
14880;PMS7003;7533;51.278;12.588;2023-02-24T18:18:47;1.00;1.00;0.25
14880;PMS7003;7533;51.278;12.588;2023-02-24T18:23:50;1.00;1.00;0.00
14880;PMS7003;7533;51.278;12.588;2023-02-24T18:28:53;2.50;1.00;0.00
14880;PMS7003;7533;51.278;12.588;2023-02-24T18:33:59;1.00;1.00;0.00
14880;PMS7003;7533;51.278;12.588;2023-02-24T18:39:02;1.25;1.00;0.00
14880;PMS7003;7533;51.278;12.588;2023-02-24T18:44:06;1.00;1.00;0.25
14880;PMS7003;7533;51.278;12.588;2023-02-24T18:49:10;1.00;0.50;0.00
14880;PMS7003;7533;51.278;12.588;2023-02-24T18:54:14;1.50;1.50;0.00
14880;PMS7003;7533;51.278;12.588;2023-02-24T18:59:17;1.25;1.25;0.00
14880;PMS7003;7533;51.278;12.588;2023-02-24T19:04:21;1.75;1.00;0.00
14880;PMS7003;7533;51.278;12.588;2023-02-24T19:09:24;0.50;0.00;0.00
14880;PMS7003;7533;51.278;12.588;2023-02-24T19:14:27;3.75;2.00;1.00
14880;PMS7003;7533;51.278;12.588;2023-02-24T19:19:33;3.25;2.50;1.00
14880;PMS7003;7533;51.278;12.588;2023-02-24T19:24:36;1.00;1.00;0.50
14880;PMS7003;7533;51.278;12.588;2023-02-24T19:29:39;1.00;1.00;0.00
14880;PMS7003;7533;51.278;12.588;2023-02-24T19:34:43;1.25;1.25;0.50
14880;PMS7003;7533;51.278;12.588;2023-02-24T19:39:46;0.00;0.00;0.00
14880;PMS7003;7533;51.278;12.588;2023-02-24T19:44:49;2.00;1.00;0.00
14880;PMS7003;7533;51.278;12.588;2023-02-24T19:49:53;1.25;1.00;0.00
14880;PMS7003;7533;51.278;12.588;2023-02-24T19:54:56;2.00;1.75;0.25
14880;PMS7003;7533;51.278;12.588;2023-02-24T20:00:00;2.00;2.00;0.00
14880;PMS7003;7533;51.278;12.588;2023-02-24T20:05:13;2.25;1.00;0.00
14880;PMS7003;7533;51.278;12.588;2023-02-24T20:10:16;1.50;1.50;0.00
14880;PMS7003;7533;51.278;12.588;2023-02-24T20:15:19;1.75;1.00;1.00
14880;PMS7003;7533;51.278;12.588;2023-02-24T20:20:23;3.00;1.50;1.00
14880;PMS7003;7533;51.278;12.588;2023-02-24T20:25:26;2.00;2.00;0.00
14880;PMS7003;7533;51.278;12.588;2023-02-24T20:30:29;2.00;1.25;1.00
14880;PMS7003;7533;51.278;12.588;2023-02-24T20:35:34;2.00;2.00;0.50
14880;PMS7003;7533;51.278;12.588;2023-02-24T20:40:41;2.00;2.00;1.00
14880;PMS7003;7533;51.278;12.588;2023-02-24T20:45:44;3.00;1.75;1.00
14880;PMS7003;7533;51.278;12.588;2023-02-24T20:50:48;2.00;2.00;1.00
14880;PMS7003;7533;51.278;12.588;2023-02-24T20:55:51;1.75;1.75;1.00
14880;PMS7003;7533;51.278;12.588;2023-02-24T21:01:03;3.50;2.25;1.00
14880;PMS7003;7533;51.278;12.588;2023-02-24T21:06:10;2.75;2.00;1.00
14880;PMS7003;7533;51.278;12.588;2023-02-24T21:11:14;2.00;1.50;0.00
14880;PMS7003;7533;51.278;12.588;2023-02-24T21:16:17;3.00;3.00;1.00
14880;PMS7003;7533;51.278;12.588;2023-02-24T21:21:23;1.25;1.00;1.00
14880;PMS7003;7533;51.278;12.588;2023-02-24T21:26:26;2.50;1.25;0.00
14880;PMS7003;7533;51.278;12.588;2023-02-24T21:31:29;3.50;3.00;1.00
14880;PMS7003;7533;51.278;12.588;2023-02-24T21:36:34;2.00;2.00;1.00
14880;PMS7003;7533;51.278;12.588;2023-02-24T21:41:36;3.25;3.00;1.00
14880;PMS7003;7533;51.278;12.588;2023-02-24T21:46:39;2.75;1.50;0.25
14880;PMS7003;7533;51.278;12.588;2023-02-24T21:51:44;1.75;1.75;1.00
14880;PMS7003;7533;51.278;12.588;2023-02-24T21:56:47;2.25;2.00;1.00
14880;PMS7003;7533;51.278;12.588;2023-02-24T22:01:50;2.75;2.00;1.00
14880;PMS7003;7533;51.278;12.588;2023-02-24T22:06:55;1.75;1.50;0.50
14880;PMS7003;7533;51.278;12.588;2023-02-24T22:11:58;3.50;1.75;1.00
14880;PMS7003;7533;51.278;12.588;2023-02-24T22:17:01;3.25;3.00;1.00
14880;PMS7003;7533;51.278;12.588;2023-02-24T22:22:06;2.75;2.00;1.75
14880;PMS7003;7533;51.278;12.588;2023-02-24T22:27:09;1.75;1.00;0.50
14880;PMS7003;7533;51.278;12.588;2023-02-24T22:32:12;1.50;1.50;1.00
14880;PMS7003;7533;51.278;12.588;2023-02-24T22:37:16;1.00;1.00;0.00
14880;PMS7003;7533;51.278;12.588;2023-02-24T22:42:19;2.00;2.00;1.00
14880;PMS7003;7533;51.278;12.588;2023-02-24T22:47:22;1.75;1.75;1.00
14880;PMS7003;7533;51.278;12.588;2023-02-24T22:52:27;3.00;2.00;0.25
14880;PMS7003;7533;51.278;12.588;2023-02-24T22:57:29;2.25;2.00;0.00
14880;PMS7003;7533;51.278;12.588;2023-02-24T23:02:35;2.00;2.00;1.00
14880;PMS7003;7533;51.278;12.588;2023-02-24T23:07:39;1.75;1.75;1.00
14880;PMS7003;7533;51.278;12.588;2023-02-24T23:12:42;3.75;3.00;1.00
14880;PMS7003;7533;51.278;12.588;2023-02-24T23:17:45;2.00;2.00;1.50
14880;PMS7003;7533;51.278;12.588;2023-02-24T23:22:50;2.00;2.00;1.00
14880;PMS7003;7533;51.278;12.588;2023-02-24T23:27:54;1.75;1.75;1.00
14880;PMS7003;7533;51.278;12.588;2023-02-24T23:32:56;2.00;2.00;1.00
14880;PMS7003;7533;51.278;12.588;2023-02-24T23:38:02;1.00;1.00;0.50
14880;PMS7003;7533;51.278;12.588;2023-02-24T23:43:05;2.00;2.00;1.00
14880;PMS7003;7533;51.278;12.588;2023-02-24T23:48:08;2.25;1.25;0.50
14880;PMS7003;7533;51.278;12.588;2023-02-24T23:53:13;1.50;1.50;1.00
14880;PMS7003;7533;51.278;12.588;2023-02-24T23:58:16;1.25;1.25;0.50
